Terminal Aerodrome Forecast
Issued by NWS

Home | Current Version | Previous Version | Text Only | Print | Product List | Glossary On
Versions: 1 2 3 4 5 6 7 8 9 10 11 12 13 14 15 16 17 18
000
FTUS42 KGSP 222320
TAFAND
TAF
KAND 222320Z 2300/2324 04005KT P6SM FEW035 BKN250
      TEMPO 2301/2305 SCT008 BKN035 OVC250
     FM230500 04004KT 4SM BR OVC003
     FM230900 05004KT 1SM BR BKN003
     FM231400 07005KT P6SM BKN008
     FM231600 07005KT P6SM BKN015
     FM231800 09005KT P6SM SCT020=

USA.gov is the U.S. government's official web portal to all federal, state and local government web resources and services.